createdAt,value
2023-02-15T00:01:25.050Z,84.62
2023-02-15T00:04:48.140Z,84.38
2023-02-15T00:07:56.477Z,84.89
2023-02-15T00:11:09.990Z,84.91
2023-02-15T00:14:22.063Z,84.49
2023-02-15T00:17:31.022Z,84.59
2023-02-15T00:20:40.544Z,85.01
2023-02-15T00:23:48.826Z,85.34
2023-02-15T00:26:57.283Z,84.95
2023-02-15T00:30:06.985Z,84.54
2023-02-15T00:33:15.371Z,84.82
2023-02-15T00:36:24.786Z,84.48
2023-02-15T00:39:32.893Z,85.20
2023-02-15T00:42:41.297Z,83.92
2023-02-15T00:45:50.721Z,83.95
2023-02-15T00:49:00.239Z,83.66
2023-02-15T00:52:09.990Z,83.68
2023-02-15T00:55:18.280Z,83.59
2023-02-15T00:58:27.326Z,84.35
2023-02-15T01:01:35.542Z,84.58
2023-02-15T01:04:43.853Z,83.89
2023-02-15T01:07:54.742Z,84.12
2023-02-15T01:11:06.909Z,84.03
2023-02-15T01:14:15.601Z,84.69
2023-02-15T01:17:23.733Z,83.40
2023-02-15T01:20:32.126Z,84.54
2023-02-15T01:23:42.684Z,84.45
2023-02-15T01:26:51.069Z,82.97
2023-02-15T01:29:59.280Z,83.68
2023-02-15T01:33:07.490Z,83.79
2023-02-15T01:36:18.268Z,83.77
2023-02-15T01:39:28.050Z,84.15
2023-02-15T01:42:36.687Z,83.84
2023-02-15T01:45:47.333Z,84.99
2023-02-15T01:49:05.473Z,83.75
2023-02-15T01:52:19.887Z,83.96
2023-02-15T01:55:35.449Z,83.96
2023-02-15T01:58:46.380Z,84.11
2023-02-15T02:02:00.974Z,83.45
2023-02-15T02:05:10.435Z,84.27
2023-02-15T02:08:18.768Z,83.19
2023-02-15T02:11:28.940Z,83.47
2023-02-15T02:14:38.155Z,83.80
2023-02-15T02:18:10.993Z,83.06
2023-02-15T02:21:51.717Z,82.70
2023-02-15T02:25:48.045Z,82.40
2023-02-15T02:29:50.029Z,83.33
2023-02-15T02:33:41.873Z,83.20
2023-02-15T02:37:00.201Z,83.18
2023-02-15T02:40:18.031Z,82.83
2023-02-15T02:43:37.386Z,83.18
2023-02-15T02:46:54.621Z,83.08
2023-02-15T02:50:14.979Z,82.87
2023-02-15T02:53:23.130Z,82.67
2023-02-15T02:56:38.755Z,82.06
2023-02-15T02:59:52.173Z,83.11
2023-02-15T03:03:07.977Z,82.78
2023-02-15T03:06:24.774Z,83.36
2023-02-15T03:09:43.504Z,82.63
2023-02-15T03:12:54.973Z,82.82
2023-02-15T03:16:24.522Z,82.93
2023-02-15T03:19:38.571Z,82.28
2023-02-15T03:22:53.354Z,82.57
2023-02-15T03:26:07.288Z,82.34
2023-02-15T03:29:21.346Z,81.84
2023-02-15T03:32:36.425Z,83.09
2023-02-15T03:35:55.194Z,83.56
2023-02-15T03:39:18.595Z,84.10
2023-02-15T03:42:33.532Z,84.56
2023-02-15T03:45:55.755Z,84.22
2023-02-15T03:49:11.927Z,84.37
2023-02-15T03:52:22.625Z,84.51
2023-02-15T03:55:32.557Z,83.44
2023-02-15T03:58:58.547Z,83.54
2023-02-15T04:02:18.111Z,83.83
2023-02-15T04:05:26.254Z,84.21
2023-02-15T04:08:48.449Z,84.53
2023-02-15T04:11:57.953Z,85.38
2023-02-15T04:15:24.939Z,85.31
2023-02-15T04:18:52.295Z,86.37
2023-02-15T04:22:18.075Z,86.26
2023-02-15T04:25:26.367Z,86.91
2023-02-15T04:28:35.966Z,85.50
2023-02-15T04:31:45.144Z,86.04
2023-02-15T04:34:53.555Z,86.92
2023-02-15T04:38:02.606Z,86.07
2023-02-15T04:41:12.324Z,86.01
2023-02-15T04:44:22.174Z,84.79
2023-02-15T04:47:30.742Z,85.22
2023-02-15T04:50:39.079Z,84.55
2023-02-15T04:53:49.457Z,84.73
2023-02-15T04:56:57.748Z,84.72
2023-02-15T05:00:09.963Z,84.60
2023-02-15T05:03:19.653Z,84.71
2023-02-15T05:06:28.126Z,85.29
2023-02-15T05:09:36.491Z,85.68
2023-02-15T05:12:44.795Z,85.91
2023-02-15T05:15:55.537Z,86.64
2023-02-15T05:19:03.794Z,84.81
2023-02-15T05:22:11.914Z,84.53
2023-02-15T05:25:38.735Z,85.03
2023-02-15T05:28:46.880Z,85.85
2023-02-15T05:31:56.821Z,85.39
2023-02-15T05:35:05.992Z,85.12
2023-02-15T05:38:14.181Z,84.65
2023-02-15T05:41:22.322Z,84.55
2023-02-15T05:44:30.645Z,84.56
2023-02-15T05:47:40.224Z,83.61
2023-02-15T05:50:58.270Z,83.67
2023-02-15T05:54:06.866Z,83.31
2023-02-15T05:57:15.111Z,84.36
2023-02-15T06:00:23.557Z,83.01
2023-02-15T06:03:33.119Z,83.06
2023-02-15T06:06:41.457Z,83.66
2023-02-15T06:09:49.655Z,83.16
2023-02-15T06:12:57.916Z,84.28
2023-02-15T06:16:06.916Z,83.63
2023-02-15T06:19:16.873Z,83.01
2023-02-15T06:22:25.063Z,83.47
2023-02-15T06:25:35.779Z,84.65
2023-02-15T06:28:44.348Z,84.39
2023-02-15T06:31:52.573Z,85.12
2023-02-15T06:35:02.368Z,83.36
2023-02-15T06:38:11.487Z,82.25
2023-02-15T06:41:19.634Z,83.14
2023-02-15T06:44:28.007Z,81.28
2023-02-15T06:47:36.216Z,81.53
2023-02-15T06:50:45.749Z,82.72
2023-02-15T06:53:53.844Z,82.93
2023-02-15T06:57:02.027Z,81.97
2023-02-15T07:00:11.720Z,83.11
2023-02-15T07:03:19.956Z,83.86
2023-02-15T07:06:33.956Z,82.95
2023-02-15T07:09:42.130Z,82.35
2023-02-15T07:12:50.291Z,83.30
2023-02-15T07:15:59.877Z,83.03
2023-02-15T07:19:09.741Z,80.91
2023-02-15T07:22:19.303Z,79.11
2023-02-15T07:25:27.787Z,76.98
2023-02-15T07:28:36.902Z,77.45
2023-02-15T07:31:46.313Z,76.77
2023-02-15T07:34:54.446Z,74.96
2023-02-15T07:38:03.942Z,76.02
2023-02-15T07:41:14.469Z,77.31
2023-02-15T07:44:22.617Z,77.42
2023-02-15T07:47:30.869Z,76.75
2023-02-15T07:50:39.210Z,75.86
2023-02-15T07:53:49.090Z,76.59
2023-02-15T07:56:57.876Z,78.56
2023-02-15T08:00:07.909Z,78.61
2023-02-15T08:03:21.023Z,77.96
2023-02-15T08:06:34.718Z,79.01
2023-02-15T08:09:44.340Z,78.33
2023-02-15T08:12:52.557Z,79.77
2023-02-15T08:16:01.208Z,79.94
2023-02-15T08:19:12.023Z,79.60
2023-02-15T08:22:20.194Z,78.10
2023-02-15T08:25:29.673Z,79.17
2023-02-15T08:28:39.754Z,78.06
2023-02-15T08:31:48.830Z,77.69
2023-02-15T08:34:57.105Z,76.85
2023-02-15T08:38:06.401Z,76.77
2023-02-15T08:41:19.974Z,75.88
2023-02-15T08:44:28.419Z,75.42
2023-02-15T08:47:36.551Z,75.96
2023-02-15T08:50:44.675Z,75.46
2023-02-15T08:53:55.134Z,76.36
2023-02-15T08:57:04.743Z,76.31
2023-02-15T09:00:14.316Z,76.80
2023-02-15T09:03:22.484Z,76.50
2023-02-15T09:06:31.055Z,76.48
2023-02-15T09:09:39.150Z,74.79
2023-02-15T09:12:51.038Z,75.11
2023-02-15T09:16:02.724Z,74.93
2023-02-15T09:19:10.893Z,75.22
2023-02-15T09:22:18.999Z,74.25
2023-02-15T09:25:27.141Z,74.38
2023-02-15T09:28:37.096Z,73.14
2023-02-15T09:31:49.859Z,73.34
2023-02-15T09:34:58.187Z,72.93
2023-02-15T09:38:06.272Z,73.77
2023-02-15T09:41:43.732Z,73.68
2023-02-15T09:45:18.921Z,74.20
2023-02-15T09:48:43.468Z,73.26
2023-02-15T09:52:36.571Z,72.50
2023-02-15T09:56:00.013Z,73.20
2023-02-15T09:59:26.385Z,72.55
2023-02-15T10:02:59.130Z,72.83
2023-02-15T10:06:31.000Z,73.00
2023-02-15T10:09:57.692Z,73.02
2023-02-15T10:13:24.618Z,72.33
2023-02-15T10:16:51.222Z,71.25
2023-02-15T10:20:19.993Z,70.96
2023-02-15T10:24:01.415Z,69.83
2023-02-15T10:27:15.183Z,68.49
2023-02-15T10:30:39.388Z,67.28
2023-02-15T10:33:47.744Z,65.49
2023-02-15T10:37:26.891Z,66.78
2023-02-15T10:40:52.099Z,68.47
2023-02-15T10:44:21.112Z,65.96
2023-02-15T10:48:08.730Z,64.51
2023-02-15T10:51:28.736Z,64.62
2023-02-15T10:54:47.690Z,63.93
2023-02-15T10:58:06.159Z,65.84
2023-02-15T11:01:25.884Z,64.97
2023-02-15T11:04:55.076Z,64.00
2023-02-15T11:08:09.207Z,63.66
2023-02-15T11:11:28.566Z,63.32
2023-02-15T11:14:45.713Z,62.36
2023-02-15T11:18:00.843Z,61.96
2023-02-15T11:21:16.559Z,62.97
2023-02-15T11:24:32.035Z,61.98
2023-02-15T11:27:42.190Z,61.39
2023-02-15T11:30:56.562Z,61.99
2023-02-15T11:34:17.734Z,61.06
2023-02-15T11:37:36.711Z,60.17
2023-02-15T11:40:51.652Z,62.07
2023-02-15T11:44:09.039Z,61.43
2023-02-15T11:47:17.381Z,60.95
2023-02-15T11:50:29.070Z,61.14
2023-02-15T11:53:40.637Z,59.93
2023-02-15T11:56:49.006Z,60.22
2023-02-15T12:00:12.531Z,60.18
2023-02-15T12:03:30.438Z,58.91
2023-02-15T12:06:47.608Z,59.05
2023-02-15T12:10:08.004Z,56.09
2023-02-15T12:13:19.396Z,56.91
2023-02-15T12:16:33.636Z,55.92
2023-02-15T12:19:42.747Z,55.13
2023-02-15T12:22:55.504Z,53.32
2023-02-15T12:26:05.087Z,53.14
2023-02-15T12:29:21.632Z,53.68
2023-02-15T12:32:37.709Z,52.36
2023-02-15T12:35:50.341Z,51.53
2023-02-15T12:39:20.486Z,51.33
2023-02-15T12:42:42.278Z,51.83
2023-02-15T12:45:50.415Z,52.23
2023-02-15T12:49:20.761Z,52.54
2023-02-15T12:52:29.272Z,51.57
2023-02-15T12:55:37.988Z,52.26
2023-02-15T12:59:07.471Z,52.50
2023-02-15T13:02:24.124Z,51.85
2023-02-15T13:05:39.963Z,52.13
2023-02-15T13:08:54.354Z,52.12
2023-02-15T13:12:17.972Z,52.13
2023-02-15T13:15:36.458Z,51.56
2023-02-15T13:18:47.781Z,52.74
2023-02-15T13:22:03.264Z,52.17
2023-02-15T13:25:21.509Z,52.47
2023-02-15T13:28:41.945Z,52.72
2023-02-15T13:31:52.271Z,54.34
2023-02-15T13:35:06.127Z,54.61
2023-02-15T13:38:48.847Z,53.45
2023-02-15T13:42:08.052Z,54.48
2023-02-15T13:45:36.541Z,54.61
2023-02-15T13:49:00.025Z,54.25
2023-02-15T13:52:23.752Z,54.47
2023-02-15T13:55:46.015Z,53.98
2023-02-15T13:59:30.452Z,53.91
2023-02-15T14:03:21.515Z,54.30
2023-02-15T14:07:00.543Z,53.76
2023-02-15T14:10:33.456Z,54.26
2023-02-15T14:14:25.383Z,54.27
2023-02-15T14:17:53.333Z,54.77
2023-02-15T14:21:11.565Z,54.60
2023-02-15T14:24:33.365Z,56.19
2023-02-15T14:27:56.790Z,55.31
2023-02-15T14:31:13.381Z,55.68
2023-02-15T14:34:26.937Z,54.97
2023-02-15T14:37:48.628Z,56.74
2023-02-15T14:41:08.559Z,57.16
2023-02-15T14:44:29.190Z,55.44
2023-02-15T14:47:46.373Z,55.78
2023-02-15T14:50:54.685Z,55.53
2023-02-15T14:54:02.793Z,55.39
2023-02-15T14:57:28.578Z,55.90
2023-02-15T15:00:41.306Z,57.04
2023-02-15T15:03:57.366Z,57.65
2023-02-15T15:07:22.189Z,57.21
2023-02-15T15:10:44.574Z,57.93
2023-02-15T15:13:58.537Z,59.93
2023-02-15T15:17:08.760Z,59.23
2023-02-15T15:20:46.578Z,59.50
2023-02-15T15:23:55.544Z,59.49
2023-02-15T15:27:55.302Z,59.61
2023-02-15T15:31:18.824Z,59.77
2023-02-15T15:35:07.913Z,59.02
2023-02-15T15:38:47.824Z,59.36
2023-02-15T15:42:09.111Z,60.00
2023-02-15T15:45:54.669Z,63.82
2023-02-15T15:49:08.433Z,65.48
2023-02-15T15:52:19.993Z,67.62
2023-02-15T15:55:34.032Z,68.20
2023-02-15T15:58:50.250Z,69.47
2023-02-15T16:02:08.348Z,69.85
2023-02-15T16:05:16.724Z,70.88
2023-02-15T16:08:35.374Z,71.33
2023-02-15T16:11:45.621Z,71.98
2023-02-15T16:14:54.553Z,73.39
2023-02-15T16:18:03.778Z,74.06
2023-02-15T16:21:21.328Z,74.99
2023-02-15T16:24:49.298Z,75.29
2023-02-15T16:27:59.005Z,75.75
2023-02-15T16:31:13.987Z,76.47
2023-02-15T16:34:22.297Z,76.89
2023-02-15T16:37:37.337Z,77.11
2023-02-15T16:40:54.715Z,77.82
2023-02-15T16:44:12.197Z,78.39
2023-02-15T16:47:27.441Z,78.43
2023-02-15T16:50:39.812Z,77.82
2023-02-15T16:53:49.667Z,79.07
2023-02-15T16:56:59.025Z,79.81
2023-02-15T17:00:21.565Z,79.89
2023-02-15T17:03:31.321Z,79.93
2023-02-15T17:06:39.879Z,81.22
2023-02-15T17:09:53.036Z,81.08
2023-02-15T17:13:05.410Z,81.50
2023-02-15T17:16:38.615Z,82.03
2023-02-15T17:19:52.543Z,82.60
2023-02-15T17:23:01.852Z,83.00
2023-02-15T17:26:19.688Z,82.97
2023-02-15T17:29:37.738Z,83.76
2023-02-15T17:32:59.929Z,83.41
2023-02-15T17:36:14.674Z,84.02
2023-02-15T17:39:24.129Z,84.72
2023-02-15T17:42:32.317Z,84.18
2023-02-15T17:45:48.800Z,83.81
2023-02-15T17:48:58.510Z,84.12
2023-02-15T17:52:08.497Z,83.99
2023-02-15T17:55:39.105Z,84.46
2023-02-15T17:58:47.714Z,85.17
2023-02-15T18:02:13.660Z,85.97
2023-02-15T18:05:41.408Z,86.39
2023-02-15T18:09:07.436Z,85.77
2023-02-15T18:12:22.937Z,86.24
2023-02-15T18:15:31.641Z,86.48
2023-02-15T18:18:40.156Z,86.33
2023-02-15T18:21:51.634Z,86.60
2023-02-15T18:25:00.875Z,86.24
2023-02-15T18:28:10.352Z,86.27
2023-02-15T18:31:20.968Z,85.81
2023-02-15T18:34:33.747Z,84.70
2023-02-15T18:37:44.944Z,85.00
2023-02-15T18:40:53.432Z,85.21
2023-02-15T18:44:01.687Z,85.00
2023-02-15T18:47:09.852Z,85.49
2023-02-15T18:50:21.640Z,86.48
2023-02-15T18:53:31.167Z,84.99
2023-02-15T18:56:39.498Z,85.38
2023-02-15T18:59:47.833Z,85.83
2023-02-15T19:02:57.563Z,86.69
2023-02-15T19:06:07.149Z,87.23
2023-02-15T19:09:22.511Z,85.93
2023-02-15T19:12:30.841Z,85.73
2023-02-15T19:15:39.505Z,87.29
2023-02-15T19:18:48.194Z,87.73
2023-02-15T19:21:57.404Z,87.67
2023-02-15T19:25:07.600Z,87.68
2023-02-15T19:28:22.056Z,88.74
2023-02-15T19:31:30.374Z,88.56
2023-02-15T19:34:39.985Z,88.19
2023-02-15T19:37:51.784Z,87.93
2023-02-15T19:41:07.514Z,88.18
2023-02-15T19:44:15.704Z,88.21
2023-02-15T19:47:24.450Z,87.87
2023-02-15T19:50:58.171Z,88.12
2023-02-15T19:54:34.524Z,88.26
2023-02-15T19:57:45.344Z,88.10
2023-02-15T20:00:53.608Z,86.85
2023-02-15T20:04:01.722Z,85.19
2023-02-15T20:07:21.380Z,86.08
2023-02-15T20:10:32.520Z,84.83
2023-02-15T20:13:42.135Z,85.08
2023-02-15T20:16:51.128Z,85.28
2023-02-15T20:19:59.582Z,85.69
2023-02-15T20:23:18.414Z,87.66
2023-02-15T20:26:29.762Z,87.10
2023-02-15T20:29:39.523Z,87.29
2023-02-15T20:32:48.166Z,87.38
2023-02-15T20:35:56.608Z,86.07
2023-02-15T20:39:14.259Z,85.32
2023-02-15T20:42:22.491Z,85.65
2023-02-15T20:45:34.428Z,85.88
2023-02-15T20:48:42.825Z,85.98
2023-02-15T20:51:52.340Z,84.98
2023-02-15T20:55:00.501Z,85.60
2023-02-15T20:58:22.586Z,85.59
2023-02-15T21:01:32.375Z,85.70
2023-02-15T21:04:40.789Z,85.09
2023-02-15T21:07:49.942Z,83.44
2023-02-15T21:11:01.451Z,83.33
2023-02-15T21:14:17.799Z,84.00
2023-02-15T21:17:27.361Z,84.72
2023-02-15T21:20:40.412Z,85.09
2023-02-15T21:23:49.299Z,83.72
2023-02-15T21:27:03.132Z,84.30
2023-02-15T21:30:17.639Z,84.62
2023-02-15T21:33:28.377Z,83.40
2023-02-15T21:36:36.690Z,83.63
2023-02-15T21:39:44.829Z,83.53
2023-02-15T21:43:10.474Z,84.09
2023-02-15T21:46:38.545Z,84.18
2023-02-15T21:49:48.030Z,84.85
2023-02-15T21:52:55.861Z,84.35
2023-02-15T21:56:07.854Z,84.24
2023-02-15T21:59:18.315Z,84.98
2023-02-15T22:02:30.667Z,85.01
2023-02-15T22:05:41.505Z,85.26
2023-02-15T22:08:49.666Z,84.50
2023-02-15T22:11:57.811Z,83.51
2023-02-15T22:15:07.876Z,82.66
2023-02-15T22:18:23.483Z,84.23
2023-02-15T22:21:33.025Z,84.93
2023-02-15T22:24:41.905Z,84.79
2023-02-15T22:27:52.986Z,85.07
2023-02-15T22:31:01.929Z,85.13
2023-02-15T22:34:27.316Z,84.82
2023-02-15T22:37:37.413Z,85.12
2023-02-15T22:40:48.743Z,84.26
2023-02-15T22:43:58.397Z,84.61
2023-02-15T22:47:07.174Z,84.92
2023-02-15T22:50:21.640Z,84.49
2023-02-15T22:53:31.229Z,84.10
2023-02-15T22:56:44.219Z,85.02
2023-02-15T22:59:52.498Z,84.42
2023-02-15T23:03:01.588Z,84.62
2023-02-15T23:06:12.337Z,84.38
2023-02-15T23:09:22.694Z,84.01
2023-02-15T23:12:54.752Z,85.07
2023-02-15T23:16:07.085Z,85.49
2023-02-15T23:19:17.091Z,85.36
2023-02-15T23:22:25.951Z,85.45
2023-02-15T23:25:35.748Z,84.61
2023-02-15T23:28:44.453Z,85.06
2023-02-15T23:31:54.794Z,84.71
2023-02-15T23:35:03.909Z,85.14
2023-02-15T23:38:25.889Z,84.45
2023-02-15T23:41:34.672Z,83.48
2023-02-15T23:44:45.785Z,84.04
2023-02-15T23:48:12.034Z,83.99
2023-02-15T23:51:21.739Z,84.65
2023-02-15T23:54:29.873Z,84.52
2023-02-15T23:57:39.758Z,83.86
